Time;durP1;ratioP1;P1;durP2;ratioP2;P2;SDS_P1;SDS_P2;PMS_P1;PMS_P2;Temp;Humidity;BMP_temperature;BMP_pressure;BME280_temperature;BME280_humidity;BME280_pressure;Samples;Min_cycle;Max_cycle;Signal;HPM_P1;HPM_P2
2022/05/31 00:00:53;;;;;;;10.38;4.43;;;;;;;;;;5108592;27;20056;-56
2022/05/31 00:03:19;;;;;;;7.15;4.05;;;;;;;;;;5110165;27;20135;-54
2022/05/31 00:05:44;;;;;;;4.40;2.95;;;;;;;;;;5112023;27;20032;-55
2022/05/31 00:08:10;;;;;;;6.72;4.30;;;;;;;;;;5114444;28;20043;-55
2022/05/31 00:10:36;;;;;;;6.07;3.65;;;;;;;;;;5114777;28;20493;-54
2022/05/31 00:13:01;;;;;;;6.35;3.40;;;;;;;;;;5119603;28;20117;-56
2022/05/31 00:15:26;;;;;;;7.15;4.40;;;;;;;;;;5118347;28;20062;-55
2022/05/31 00:17:52;;;;;;;5.05;2.78;;;;;;;;;;5116782;28;20047;-56
2022/05/31 00:20:17;;;;;;;13.45;2.97;;;;;;;;;;5118410;27;20067;-54
2022/05/31 00:22:43;;;;;;;4.78;3.25;;;;;;;;;;5107292;27;20427;-55
2022/05/31 00:25:09;;;;;;;5.07;3.90;;;;;;;;;;5107348;27;20067;-56
2022/05/31 00:27:35;;;;;;;7.20;3.53;;;;;;;;;;5123210;27;20089;-56
2022/05/31 00:30:00;;;;;;;7.65;4.47;;;;;;;;;;5123963;27;20519;-54
2022/05/31 00:32:27;;;;;;;4.85;3.95;;;;;;;;;;5125800;27;20113;-56
2022/05/31 00:34:53;;;;;;;23.70;4.00;;;;;;;;;;5122138;27;20146;-56
2022/05/31 00:37:19;;;;;;;6.45;3.97;;;;;;;;;;5120858;27;20114;-52
2022/05/31 00:39:45;;;;;;;8.95;4.10;;;;;;;;;;5121318;27;20163;-55
2022/05/31 00:42:15;;;;;;;3.40;3.10;;;;;;;;;;5120183;27;20626;-53
2022/05/31 00:44:41;;;;;;;9.02;5.43;;;;;;;;;;5116167;27;20067;-55
2022/05/31 00:47:14;;;;;;;4.47;3.60;;;;;;;;;;5110947;27;20098;-55
2022/05/31 00:50:08;;;;;;;5.95;4.15;;;;;;;;;;5119546;27;20242;-55
2022/05/31 00:52:35;;;;;;;4.60;4.03;;;;;;;;;;5100216;27;20035;-56
2022/05/31 00:55:04;;;;;;;11.52;4.43;;;;;;;;;;5107488;27;20043;-52
2022/05/31 00:57:32;;;;;;;18.60;10.35;;;;;;;;;;5113669;27;20040;-55
2022/05/31 00:59:59;;;;;;;22.85;8.15;;;;;;;;;;5114516;27;20039;-55
2022/05/31 01:02:25;;;;;;;8.02;3.83;;;;;;;;;;5115353;27;20043;-55
2022/05/31 01:05:01;;;;;;;6.47;4.00;;;;;;;;;;5113185;27;20088;-52
2022/05/31 01:07:27;;;;;;;6.05;3.63;;;;;;;;;;5121958;27;20047;-56
2022/05/31 01:09:52;;;;;;;5.15;4.63;;;;;;;;;;5118029;27;20484;-56
2022/05/31 01:12:19;;;;;;;10.05;3.92;;;;;;;;;;5117905;27;20043;-56
2022/05/31 01:14:44;;;;;;;12.70;4.28;;;;;;;;;;5111908;27;20046;-55
2022/05/31 01:17:14;;;;;;;12.32;4.60;;;;;;;;;;5118858;27;20035;-57
2022/05/31 01:22:27;;;;;;;13.45;3.90;;;;;;;;;;5113034;27;20447;-56
2022/05/31 01:25:06;;;;;;;6.63;4.88;;;;;;;;;;5120524;27;20130;-55
2022/05/31 01:27:39;;;;;;;10.18;3.20;;;;;;;;;;5119011;27;20069;-54
2022/05/31 01:30:06;;;;;;;5.60;3.63;;;;;;;;;;5122984;27;20051;-55
2022/05/31 01:32:33;;;;;;;5.20;3.70;;;;;;;;;;5105043;27;20047;-55
2022/05/31 01:35:08;;;;;;;5.40;3.20;;;;;;;;;;5107868;27;20200;-54
2022/05/31 01:37:45;;;;;;;6.28;3.50;;;;;;;;;;5119731;27;20130;-54
2022/05/31 01:40:18;;;;;;;6.88;4.13;;;;;;;;;;5117122;27;20047;-54
2022/05/31 01:42:46;;;;;;;9.90;4.07;;;;;;;;;;5116666;27;20135;-52
2022/05/31 01:45:14;;;;;;;4.15;3.67;;;;;;;;;;5121429;27;20035;-54
2022/05/31 01:47:40;;;;;;;8.57;3.25;;;;;;;;;;5120284;27;20445;-53
2022/05/31 01:50:08;;;;;;;6.18;4.05;;;;;;;;;;5122897;27;20046;-53
2022/05/31 01:52:33;;;;;;;4.43;2.70;;;;;;;;;;5121766;27;20134;-54
2022/05/31 01:54:59;;;;;;;6.00;4.65;;;;;;;;;;5114453;27;20187;-54
2022/05/31 01:57:25;;;;;;;5.57;3.88;;;;;;;;;;5106454;27;20048;-53
2022/05/31 01:59:52;;;;;;;14.50;3.97;;;;;;;;;;5111366;27;20040;-55
2022/05/31 02:02:18;;;;;;;6.82;3.47;;;;;;;;;;5110495;27;20496;-50
2022/05/31 02:04:45;;;;;;;7.20;3.58;;;;;;;;;;5113139;27;20101;-53
2022/05/31 02:07:21;;;;;;;5.90;3.30;;;;;;;;;;5110547;27;20048;-53
2022/05/31 02:09:47;;;;;;;7.13;3.45;;;;;;;;;;5106650;27;20105;-55
2022/05/31 02:12:13;;;;;;;6.57;3.97;;;;;;;;;;5122989;27;20051;-54
2022/05/31 02:14:39;;;;;;;3.95;3.60;;;;;;;;;;5120245;27;20084;-53
2022/05/31 02:17:05;;;;;;;16.48;3.90;;;;;;;;;;5115119;27;20050;-54
2022/05/31 02:19:30;;;;;;;4.82;4.25;;;;;;;;;;5114336;27;20055;-53
2022/05/31 02:21:57;;;;;;;4.68;3.72;;;;;;;;;;5121491;27;20047;-53
2022/05/31 02:24:23;;;;;;;4.07;3.40;;;;;;;;;;5107980;27;20275;-53
2022/05/31 02:26:48;;;;;;;4.75;3.15;;;;;;;;;;5110859;27;20488;-55
2022/05/31 02:29:15;;;;;;;14.32;3.40;;;;;;;;;;5108228;27;20062;-54
2022/05/31 02:31:41;;;;;;;4.80;3.15;;;;;;;;;;5107109;27;20118;-53
2022/05/31 02:34:06;;;;;;;6.32;4.57;;;;;;;;;;5119162;27;20489;-53
2022/05/31 02:36:33;;;;;;;6.00;3.97;;;;;;;;;;5107823;27;20044;-51
2022/05/31 02:38:58;;;;;;;9.98;3.58;;;;;;;;;;5111936;27;20054;-55
2022/05/31 02:41:24;;;;;;;4.97;2.90;;;;;;;;;;5116591;27;20044;-55
2022/05/31 02:43:49;;;;;;;12.07;3.97;;;;;;;;;;5116951;27;20051;-53
2022/05/31 02:46:14;;;;;;;7.80;4.30;;;;;;;;;;5109433;27;20036;-56
2022/05/31 02:48:40;;;;;;;4.40;3.15;;;;;;;;;;5110126;27;20531;-53
2022/05/31 02:51:05;;;;;;;14.15;3.15;;;;;;;;;;5111852;27;20117;-52
2022/05/31 02:53:31;;;;;;;5.70;4.00;;;;;;;;;;5116227;27;20047;-55
2022/05/31 02:55:59;;;;;;;10.50;3.35;;;;;;;;;;5114245;27;20736;-55
2022/05/31 02:58:25;;;;;;;6.03;3.80;;;;;;;;;;5105483;27;20579;-54
2022/05/31 03:00:50;;;;;;;4.53;3.42;;;;;;;;;;5117865;27;20195;-53
2022/05/31 03:03:16;;;;;;;5.80;4.03;;;;;;;;;;5113284;27;20127;-53
2022/05/31 03:05:41;;;;;;;5.88;3.72;;;;;;;;;;5111025;27;20404;-56
2022/05/31 03:08:06;;;;;;;4.85;4.30;;;;;;;;;;5110679;27;20040;-53
2022/05/31 03:10:33;;;;;;;6.00;3.97;;;;;;;;;;5108306;27;20031;-51
2022/05/31 03:12:59;;;;;;;7.13;4.22;;;;;;;;;;5119787;27;20047;-54
2022/05/31 03:15:25;;;;;;;4.63;3.25;;;;;;;;;;5117208;27;20047;-55
2022/05/31 03:17:57;;;;;;;5.07;4.25;;;;;;;;;;5120347;27;20055;-55
2022/05/31 03:20:25;;;;;;;11.95;3.65;;;;;;;;;;5122408;27;20046;-55
2022/05/31 03:22:53;;;;;;;7.68;3.95;;;;;;;;;;5103333;27;20047;-54
2022/05/31 03:25:21;;;;;;;5.72;3.40;;;;;;;;;;5101418;27;20045;-55
2022/05/31 03:27:46;;;;;;;2.85;2.55;;;;;;;;;;5109430;27;20080;-55
2022/05/31 03:30:12;;;;;;;11.75;5.25;;;;;;;;;;5100119;27;20615;-55
2022/05/31 03:32:38;;;;;;;4.68;2.90;;;;;;;;;;5114528;27;20051;-55
2022/05/31 03:35:05;;;;;;;5.28;3.70;;;;;;;;;;5119813;27;20078;-52
2022/05/31 03:37:30;;;;;;;44.30;11.98;;;;;;;;;;5114763;27;20090;-55
2022/05/31 03:39:55;;;;;;;7.15;4.28;;;;;;;;;;5119284;27;20685;-54
2022/05/31 03:42:20;;;;;;;5.35;3.28;;;;;;;;;;5118169;27;20050;-55
2022/05/31 03:44:46;;;;;;;6.82;4.05;;;;;;;;;;5122275;28;20054;-55
2022/05/31 03:47:11;;;;;;;5.00;4.28;;;;;;;;;;5117706;28;20047;-55
2022/05/31 03:49:36;;;;;;;4.25;3.50;;;;;;;;;;5114266;28;20309;-52
2022/05/31 03:52:02;;;;;;;5.28;3.60;;;;;;;;;;5111825;28;20126;-53
2022/05/31 03:54:28;;;;;;;13.32;3.88;;;;;;;;;;5115516;27;20071;-54
2022/05/31 03:56:53;;;;;;;12.48;3.47;;;;;;;;;;5118313;27;20464;-56
2022/05/31 03:59:18;;;;;;;14.45;4.13;;;;;;;;;;5110020;27;20035;-53
2022/05/31 04:01:44;;;;;;;5.35;3.38;;;;;;;;;;5113147;27;20052;-54
2022/05/31 04:04:10;;;;;;;8.30;3.70;;;;;;;;;;5122200;27;20042;-55
2022/05/31 04:06:36;;;;;;;14.20;5.07;;;;;;;;;;5110852;27;20071;-54
2022/05/31 04:09:02;;;;;;;4.13;3.70;;;;;;;;;;5119538;27;20073;-54
2022/05/31 04:11:27;;;;;;;10.50;3.72;;;;;;;;;;5110430;27;20040;-54
2022/05/31 04:13:54;;;;;;;5.53;3.92;;;;;;;;;;5110689;27;20050;-55
2022/05/31 04:16:20;;;;;;;12.38;5.38;;;;;;;;;;5116178;27;20063;-52
2022/05/31 04:18:46;;;;;;;5.45;4.25;;;;;;;;;;5108376;27;20475;-52
2022/05/31 04:21:12;;;;;;;3.40;3.10;;;;;;;;;;5117462;27;20039;-55
2022/05/31 04:26:22;;;;;;;7.13;3.67;;;;;;;;;;5114075;27;20054;-55
2022/05/31 04:28:48;;;;;;;5.15;4.25;;;;;;;;;;5114135;27;20048;-54
2022/05/31 04:31:13;;;;;;;5.88;4.05;;;;;;;;;;5121494;27;20094;-54
2022/05/31 04:33:39;;;;;;;14.00;3.53;;;;;;;;;;5123324;27;20036;-53
2022/05/31 04:36:09;;;;;;;6.72;4.15;;;;;;;;;;5119736;27;20129;-56
2022/05/31 04:38:35;;;;;;;3.47;2.95;;;;;;;;;;5121818;27;20028;-56
2022/05/31 04:41:00;;;;;;;5.78;4.65;;;;;;;;;;5120878;27;20525;-56
2022/05/31 04:43:26;;;;;;;6.75;4.35;;;;;;;;;;5118754;27;20479;-56
2022/05/31 04:45:51;;;;;;;4.75;3.60;;;;;;;;;;5121736;27;20040;-55
2022/05/31 04:48:16;;;;;;;9.20;3.67;;;;;;;;;;5108944;27;20043;-56
2022/05/31 04:50:42;;;;;;;7.20;3.60;;;;;;;;;;5113664;27;20116;-56
2022/05/31 04:53:07;;;;;;;5.15;4.13;;;;;;;;;;5126395;27;20051;-55
2022/05/31 04:55:32;;;;;;;20.60;3.58;;;;;;;;;;5115949;27;20055;-56
2022/05/31 04:57:58;;;;;;;18.90;5.55;;;;;;;;;;5119032;27;20032;-53
2022/05/31 05:00:23;;;;;;;4.53;3.60;;;;;;;;;;5118756;27;20050;-54
2022/05/31 05:02:48;;;;;;;9.57;4.07;;;;;;;;;;5119677;27;20063;-56
2022/05/31 05:05:14;;;;;;;8.15;5.10;;;;;;;;;;5107800;27;20031;-55
2022/05/31 05:07:39;;;;;;;7.32;4.88;;;;;;;;;;5114819;27;20086;-54
2022/05/31 05:10:05;;;;;;;5.28;3.47;;;;;;;;;;5111098;27;20060;-54
2022/05/31 05:12:31;;;;;;;12.38;5.65;;;;;;;;;;5118948;27;20602;-53
2022/05/31 05:14:56;;;;;;;8.02;3.58;;;;;;;;;;5118996;27;20079;-54
2022/05/31 05:17:25;;;;;;;24.52;3.97;;;;;;;;;;5118753;27;20138;-54
2022/05/31 05:19:50;;;;;;;22.70;5.20;;;;;;;;;;5119583;27;20051;-55
2022/05/31 05:22:15;;;;;;;7.65;4.00;;;;;;;;;;5121024;27;20118;-55
2022/05/31 05:24:40;;;;;;;16.63;5.50;;;;;;;;;;5117284;27;20051;-55
2022/05/31 05:27:06;;;;;;;7.45;4.15;;;;;;;;;;5119177;27;20053;-55
2022/05/31 05:32:15;;;;;;;5.30;4.57;;;;;;;;;;5115282;27;20130;-54
2022/05/31 05:34:40;;;;;;;9.73;4.55;;;;;;;;;;5111732;27;20126;-56
2022/05/31 05:37:06;;;;;;;21.15;5.72;;;;;;;;;;5119330;27;20114;-55
2022/05/31 05:39:31;;;;;;;18.55;6.03;;;;;;;;;;5119731;27;20099;-56
2022/05/31 05:41:57;;;;;;;13.55;6.75;;;;;;;;;;5120522;27;20714;-56
2022/05/31 05:44:22;;;;;;;5.00;4.50;;;;;;;;;;5122228;27;20047;-56
2022/05/31 05:46:47;;;;;;;8.07;5.63;;;;;;;;;;5116950;27;20122;-56
2022/05/31 05:49:13;;;;;;;6.75;5.40;;;;;;;;;;5121191;27;20068;-56
2022/05/31 05:51:38;;;;;;;52.83;10.02;;;;;;;;;;5121014;27;20072;-56
2022/05/31 05:54:03;;;;;;;18.77;7.18;;;;;;;;;;5121045;27;20092;-55
2022/05/31 05:56:29;;;;;;;8.90;4.80;;;;;;;;;;5111792;27;20696;-57
2022/05/31 05:58:54;;;;;;;8.27;4.03;;;;;;;;;;5116454;27;20054;-56
2022/05/31 06:01:19;;;;;;;14.60;6.38;;;;;;;;;;5121220;27;20047;-56
2022/05/31 06:03:51;;;;;;;18.15;12.32;;;;;;;;;;5095975;27;20047;-55
2022/05/31 06:06:17;;;;;;;33.60;29.13;;;;;;;;;;5119992;27;20043;-56
2022/05/31 06:08:46;;;;;;;21.80;15.60;;;;;;;;;;5123962;27;20126;-57
2022/05/31 06:11:11;;;;;;;31.40;17.95;;;;;;;;;;5121695;27;20035;-56
2022/05/31 06:13:41;;;;;;;41.67;26.90;;;;;;;;;;5119108;27;20051;-56
2022/05/31 06:16:07;;;;;;;26.52;22.23;;;;;;;;;;5119054;27;20047;-56
2022/05/31 06:18:37;;;;;;;35.17;18.02;;;;;;;;;;5117669;27;20065;-57
2022/05/31 06:21:05;;;;;;;19.90;12.70;;;;;;;;;;5118484;27;20054;-56
2022/05/31 06:23:31;;;;;;;28.33;10.52;;;;;;;;;;5115234;27;20135;-57
2022/05/31 06:25:56;;;;;;;12.32;7.63;;;;;;;;;;5113326;27;20329;-58
2022/05/31 06:28:22;;;;;;;12.80;7.40;;;;;;;;;;5112114;27;20040;-57
2022/05/31 06:30:47;;;;;;;9.18;6.50;;;;;;;;;;5107858;27;20109;-57
2022/05/31 06:33:12;;;;;;;8.60;6.30;;;;;;;;;;5117262;27;20097;-58
2022/05/31 06:35:38;;;;;;;7.72;5.55;;;;;;;;;;5118324;27;20035;-57
2022/05/31 06:38:06;;;;;;;21.83;11.25;;;;;;;;;;5114682;27;20122;-57
2022/05/31 06:40:32;;;;;;;26.10;23.17;;;;;;;;;;5117499;27;20039;-58
2022/05/31 06:42:58;;;;;;;28.85;18.50;;;;;;;;;;5101012;27;20058;-56
2022/05/31 06:45:24;;;;;;;38.53;27.02;;;;;;;;;;5120072;27;20074;-61
2022/05/31 06:47:49;;;;;;;17.38;10.95;;;;;;;;;;5117281;27;20078;-61
2022/05/31 06:50:14;;;;;;;18.80;8.07;;;;;;;;;;5118844;27;20084;-60
2022/05/31 06:58:08;;;;;;;13.27;10.23;;;;;;;;;;5107097;27;20071;-60
2022/05/31 07:00:33;;;;;;;16.40;9.30;;;;;;;;;;5107830;27;20476;-61
2022/05/31 07:02:59;;;;;;;16.25;10.93;;;;;;;;;;5115532;27;20047;-60
2022/05/31 07:05:25;;;;;;;14.95;7.53;;;;;;;;;;5115526;27;20051;-61
2022/05/31 07:07:54;;;;;;;8.80;7.38;;;;;;;;;;5119900;27;20043;-58
2022/05/31 07:10:20;;;;;;;11.23;7.40;;;;;;;;;;5114442;27;20047;-59
2022/05/31 07:12:46;;;;;;;13.63;9.18;;;;;;;;;;5108299;27;20055;-57
2022/05/31 07:15:11;;;;;;;13.15;7.88;;;;;;;;;;5112096;27;20052;-57
2022/05/31 07:17:37;;;;;;;6.30;5.70;;;;;;;;;;5110096;27;20443;-59
2022/05/31 07:20:03;;;;;;;13.48;6.70;;;;;;;;;;5117121;27;20054;-61
2022/05/31 07:22:28;;;;;;;7.68;6.22;;;;;;;;;;5112156;27;20061;-59
2022/05/31 07:24:54;;;;;;;18.08;6.85;;;;;;;;;;5110633;27;20567;-59
2022/05/31 07:27:19;;;;;;;9.00;6.22;;;;;;;;;;5112870;27;20066;-60
2022/05/31 07:29:44;;;;;;;4.03;3.38;;;;;;;;;;5113583;27;20047;-59
2022/05/31 07:32:10;;;;;;;11.27;5.38;;;;;;;;;;5112564;27;20043;-59
2022/05/31 07:34:35;;;;;;;5.75;4.68;;;;;;;;;;5096336;27;20063;-59
2022/05/31 07:37:01;;;;;;;11.27;5.90;;;;;;;;;;5107085;27;20354;-59
2022/05/31 07:39:26;;;;;;;11.65;5.70;;;;;;;;;;5118370;27;20043;-59
2022/05/31 07:41:54;;;;;;;19.95;7.53;;;;;;;;;;5120330;27;20045;-59
2022/05/31 07:44:20;;;;;;;16.55;7.85;;;;;;;;;;5120508;27;20034;-59
2022/05/31 07:46:45;;;;;;;23.67;12.25;;;;;;;;;;5114835;28;20313;-59
2022/05/31 07:49:10;;;;;;;16.85;8.15;;;;;;;;;;5117724;28;20132;-59
2022/05/31 07:51:36;;;;;;;10.88;7.57;;;;;;;;;;5120255;28;20046;-59
2022/05/31 07:54:01;;;;;;;9.50;5.43;;;;;;;;;;5119915;28;20043;-59
2022/05/31 07:56:27;;;;;;;9.68;4.63;;;;;;;;;;5118832;28;20445;-59
2022/05/31 07:58:52;;;;;;;13.38;5.70;;;;;;;;;;5114925;28;20039;-58
2022/05/31 08:01:19;;;;;;;10.98;4.10;;;;;;;;;;5118469;28;20039;-59
2022/05/31 08:03:45;;;;;;;5.93;4.50;;;;;;;;;;5117534;28;20047;-59
2022/05/31 08:06:12;;;;;;;7.43;3.83;;;;;;;;;;5116688;28;20344;-60
2022/05/31 08:08:38;;;;;;;7.65;4.25;;;;;;;;;;5110965;28;20096;-59
2022/05/31 08:11:08;;;;;;;9.45;4.70;;;;;;;;;;5109390;28;20043;-59
2022/05/31 08:13:33;;;;;;;3.63;2.60;;;;;;;;;;5115811;28;20443;-58
2022/05/31 08:15:59;;;;;;;4.50;3.08;;;;;;;;;;5114376;28;20039;-59
2022/05/31 08:18:25;;;;;;;5.63;3.45;;;;;;;;;;5106120;28;20074;-59
2022/05/31 08:20:50;;;;;;;5.78;3.97;;;;;;;;;;5108568;28;20071;-58
2022/05/31 08:23:16;;;;;;;3.88;3.00;;;;;;;;;;5118485;28;20071;-58
2022/05/31 08:25:41;;;;;;;11.75;4.80;;;;;;;;;;5118172;28;20454;-59
2022/05/31 08:28:06;;;;;;;6.68;4.68;;;;;;;;;;5115653;28;20071;-58
2022/05/31 08:30:32;;;;;;;14.10;9.23;;;;;;;;;;5118411;28;20043;-58
2022/05/31 08:32:57;;;;;;;12.30;9.20;;;;;;;;;;5109197;27;20077;-58
2022/05/31 08:35:23;;;;;;;16.25;6.53;;;;;;;;;;5113579;28;20069;-59
2022/05/31 08:37:48;;;;;;;14.68;11.23;;;;;;;;;;5116456;28;20043;-59
2022/05/31 08:40:13;;;;;;;20.90;14.43;;;;;;;;;;5101837;28;20070;-59
2022/05/31 08:42:57;;;;;;;12.52;9.43;;;;;;;;;;5111528;27;20400;-59
2022/05/31 08:45:41;;;;;;;21.63;14.82;;;;;;;;;;5103835;27;20040;-59
2022/05/31 08:48:21;;;;;;;14.75;10.65;;;;;;;;;;5121422;27;20051;-55
2022/05/31 08:56:56;;;;;;;32.25;14.57;;;;;;;;;;5113549;27;20085;-58
2022/05/31 08:56:59;;;;;;;20.35;13.32;;;;;;;;;;5118555;27;20054;-57
2022/05/31 08:59:30;;;;;;;24.10;17.35;;;;;;;;;;5110591;27;20039;-58
2022/05/31 09:01:58;;;;;;;24.23;16.63;;;;;;;;;;5113995;27;20063;-58
2022/05/31 09:04:29;;;;;;;21.05;13.13;;;;;;;;;;5115015;27;20073;-58
2022/05/31 09:07:00;;;;;;;18.98;11.70;;;;;;;;;;5110386;27;20115;-58
2022/05/31 09:09:29;;;;;;;18.38;10.93;;;;;;;;;;5102532;27;20059;-58
2022/05/31 09:12:10;;;;;;;13.48;10.93;;;;;;;;;;5111548;27;20035;-59
2022/05/31 09:14:41;;;;;;;17.08;10.70;;;;;;;;;;5124657;27;20897;-58
2022/05/31 09:17:23;;;;;;;17.88;10.70;;;;;;;;;;5105957;27;20046;-57
2022/05/31 09:19:48;;;;;;;10.57;7.78;;;;;;;;;;5100519;27;20042;-58
2022/05/31 09:22:14;;;;;;;11.88;6.65;;;;;;;;;;5119574;27;20051;-58
2022/05/31 09:24:45;;;;;;;17.10;12.13;;;;;;;;;;5121022;27;20039;-59
2022/05/31 09:27:12;;;;;;;24.27;12.80;;;;;;;;;;5121944;27;20040;-58
2022/05/31 09:29:53;;;;;;;14.00;9.73;;;;;;;;;;5117229;27;20039;-58
2022/05/31 09:32:18;;;;;;;;;;;;;;;;;;5108804;27;20075;-58
2022/05/31 09:35:02;;;;;;;9.85;6.05;;;;;;;;;;5118767;27;19969;-58
2022/05/31 09:37:46;;;;;;;15.05;9.30;;;;;;;;;;5116940;27;20560;-58
2022/05/31 09:40:31;;;;;;;14.60;9.82;;;;;;;;;;5118293;27;20063;-58
2022/05/31 09:42:59;;;;;;;7.22;5.78;;;;;;;;;;5115056;27;20060;-59
2022/05/31 09:45:25;;;;;;;20.27;8.98;;;;;;;;;;5117361;27;20061;-58
2022/05/31 09:47:51;;;;;;;19.88;10.45;;;;;;;;;;5114998;27;20123;-58
2022/05/31 09:50:34;;;;;;;11.75;6.43;;;;;;;;;;5109134;27;20198;-57
2022/05/31 09:53:00;;;;;;;13.25;7.28;;;;;;;;;;5118776;27;20050;-58
2022/05/31 09:58:20;;;;;;;9.35;6.75;;;;;;;;;;5119268;27;20134;-58
2022/05/31 10:01:00;;;;;;;9.98;7.70;;;;;;;;;;5123517;27;20133;-58
2022/05/31 10:03:35;;;;;;;18.00;7.60;;;;;;;;;;5109019;27;20071;-58
2022/05/31 10:06:20;;;;;;;15.50;5.90;;;;;;;;;;5109905;27;20069;-58
2022/05/31 10:08:52;;;;;;;13.32;6.07;;;;;;;;;;5112694;27;20082;-58
2022/05/31 10:11:23;;;;;;;13.88;7.35;;;;;;;;;;5113843;27;20046;-57
2022/05/31 10:14:05;;;;;;;11.13;5.40;;;;;;;;;;5115947;27;20066;-58
2022/05/31 10:16:34;;;;;;;8.05;5.22;;;;;;;;;;5107689;27;20043;-58
2022/05/31 10:19:03;;;;;;;11.15;4.88;;;;;;;;;;5115254;27;20043;-58
2022/05/31 10:21:30;;;;;;;18.40;4.68;;;;;;;;;;5111647;27;20047;-58
2022/05/31 10:23:59;;;;;;;14.27;6.63;;;;;;;;;;5113639;27;20463;-59
2022/05/31 10:26:25;;;;;;;10.60;5.13;;;;;;;;;;5097518;27;20035;-57
2022/05/31 10:29:06;;;;;;;6.88;5.55;;;;;;;;;;5117275;27;20137;-59
2022/05/31 10:31:37;;;;;;;5.65;4.93;;;;;;;;;;5120874;27;20507;-58
2022/05/31 10:34:23;;;;;;;11.25;5.15;;;;;;;;;;5112273;27;20047;-57
2022/05/31 10:36:50;;;;;;;11.23;4.50;;;;;;;;;;5115221;27;20136;-58
2022/05/31 10:39:18;;;;;;;43.58;8.25;;;;;;;;;;5105160;27;20036;-58
2022/05/31 10:41:44;;;;;;;20.25;7.28;;;;;;;;;;5108322;27;20415;-58
2022/05/31 10:44:14;;;;;;;12.68;8.90;;;;;;;;;;5112217;27;20555;-57
2022/05/31 10:46:42;;;;;;;7.37;6.33;;;;;;;;;;5108787;27;20993;-57
2022/05/31 10:49:15;;;;;;;30.40;10.40;;;;;;;;;;5106377;27;20322;-57
2022/05/31 10:51:59;;;;;;;21.90;9.48;;;;;;;;;;5119033;27;20130;-57
2022/05/31 10:54:43;;;;;;;150.23;22.17;;;;;;;;;;5106111;27;20070;-57
2022/05/31 10:57:14;;;;;;;54.80;11.77;;;;;;;;;;5109858;27;20445;-57
2022/05/31 10:59:49;;;;;;;80.25;30.20;;;;;;;;;;5119596;27;20062;-58
2022/05/31 11:02:15;;;;;;;21.75;13.40;;;;;;;;;;5118674;27;20035;-57
2022/05/31 11:04:49;;;;;;;42.05;14.98;;;;;;;;;;5116664;27;20353;-57
2022/05/31 11:07:17;;;;;;;20.73;15.05;;;;;;;;;;5114294;27;20070;-58
2022/05/31 11:12:48;;;;;;;53.25;14.57;;;;;;;;;;5106929;27;20073;-57
2022/05/31 11:15:20;;;;;;;24.60;7.40;;;;;;;;;;5106558;27;20543;-57
2022/05/31 11:17:46;;;;;;;11.43;7.50;;;;;;;;;;5111539;27;20088;-59
2022/05/31 11:20:11;;;;;;;35.33;9.13;;;;;;;;;;5096405;27;20047;-59
2022/05/31 11:22:52;;;;;;;5.22;3.97;;;;;;;;;;5118447;27;20115;-58
2022/05/31 11:25:32;;;;;;;4.38;3.45;;;;;;;;;;5098815;27;20035;-59
2022/05/31 11:28:04;;;;;;;5.07;3.78;;;;;;;;;;5121118;27;20043;-59
2022/05/31 11:30:51;;;;;;;8.63;5.90;;;;;;;;;;5110966;27;20039;-59
2022/05/31 11:33:35;;;;;;;5.82;5.22;;;;;;;;;;5117529;27;20084;-59
2022/05/31 11:36:19;;;;;;;17.08;7.80;;;;;;;;;;5104583;27;20168;-58
2022/05/31 11:38:56;;;;;;;22.17;4.85;;;;;;;;;;5116681;27;20054;-58
2022/05/31 11:41:47;;;;;;;36.28;16.08;;;;;;;;;;5118668;27;20039;-57
2022/05/31 11:44:12;;;;;;;11.15;4.05;;;;;;;;;;5118372;27;20046;-57
2022/05/31 11:46:47;;;;;;;27.02;6.22;;;;;;;;;;5119403;27;20036;-58
2022/05/31 11:49:18;;;;;;;22.85;11.32;;;;;;;;;;5117515;28;20043;-58
2022/05/31 11:52:02;;;;;;;15.50;12.00;;;;;;;;;;5117301;28;20041;-58
2022/05/31 11:54:37;;;;;;;10.23;7.43;;;;;;;;;;5117800;28;20088;-58
2022/05/31 11:57:05;;;;;;;86.28;11.10;;;;;;;;;;5119527;28;20074;-58
2022/05/31 11:59:41;;;;;;;53.65;8.93;;;;;;;;;;5115768;28;20052;-58
2022/05/31 12:02:20;;;;;;;6.13;3.88;;;;;;;;;;5114663;28;20051;-57
2022/05/31 12:04:49;;;;;;;5.47;3.85;;;;;;;;;;5112979;28;20035;-57
2022/05/31 12:07:18;;;;;;;8.95;4.53;;;;;;;;;;5117266;28;20103;-57
2022/05/31 12:09:49;;;;;;;6.35;3.38;;;;;;;;;;5115055;28;20069;-57
2022/05/31 12:12:14;;;;;;;4.32;3.28;;;;;;;;;;5117116;28;20032;-57
2022/05/31 12:14:41;;;;;;;4.68;3.00;;;;;;;;;;5117440;28;20051;-58
2022/05/31 12:17:08;;;;;;;13.43;8.95;;;;;;;;;;5121882;27;20036;-57
2022/05/31 12:19:38;;;;;;;16.42;11.82;;;;;;;;;;5120543;27;20122;-56
2022/05/31 12:22:19;;;;;;;6.43;4.78;;;;;;;;;;5121385;27;20524;-57
2022/05/31 12:24:56;;;;;;;3.42;1.95;;;;;;;;;;5122271;27;20048;-57
2022/05/31 12:27:29;;;;;;;12.40;3.50;;;;;;;;;;5122834;27;20116;-57
2022/05/31 12:29:59;;;;;;;5.20;3.80;;;;;;;;;;5121921;27;20409;-57
2022/05/31 12:32:30;;;;;;;6.13;4.90;;;;;;;;;;5120969;27;20123;-57
2022/05/31 12:34:57;;;;;;;9.05;6.97;;;;;;;;;;5121027;27;20062;-58
2022/05/31 12:37:23;;;;;;;5.50;2.78;;;;;;;;;;5120992;27;20040;-57
2022/05/31 12:39:50;;;;;;;6.20;3.83;;;;;;;;;;5122155;27;20197;-57
2022/05/31 12:42:24;;;;;;;7.07;3.60;;;;;;;;;;5122169;27;20047;-57
2022/05/31 12:44:50;;;;;;;18.95;7.43;;;;;;;;;;5102254;27;20047;-57
2022/05/31 12:47:21;;;;;;;5.53;3.50;;;;;;;;;;5121213;27;20039;-58
2022/05/31 12:49:52;;;;;;;3.38;2.35;;;;;;;;;;5119795;27;20115;-57
2022/05/31 12:54:56;;;;;;;8.75;4.05;;;;;;;;;;5114022;27;20036;-57
2022/05/31 12:57:21;;;;;;;6.53;2.90;;;;;;;;;;5121474;27;20051;-57
2022/05/31 12:59:48;;;;;;;9.23;5.55;;;;;;;;;;5118049;27;20054;-58
2022/05/31 13:02:22;;;;;;;6.38;4.35;;;;;;;;;;5119847;27;20043;-57
2022/05/31 13:04:56;;;;;;;7.10;5.00;;;;;;;;;;5119963;27;20069;-57
2022/05/31 13:07:22;;;;;;;6.43;4.10;;;;;;;;;;5120105;27;20442;-57
2022/05/31 13:09:48;;;;;;;13.55;4.20;;;;;;;;;;5119971;27;20046;-57
2022/05/31 13:20:46;;;;;;;64.32;13.05;;;;;;;;;;5121978;27;20144;-58
2022/05/31 13:23:12;;;;;;;69.22;14.48;;;;;;;;;;5115901;27;20043;-58
2022/05/31 13:25:40;;;;;;;32.03;6.88;;;;;;;;;;5111653;27;20436;-57
2022/05/31 13:28:05;;;;;;;8.02;5.68;;;;;;;;;;5106700;27;20070;-57
2022/05/31 13:30:32;;;;;;;11.77;5.43;;;;;;;;;;5102807;27;20044;-58
2022/05/31 13:32:58;;;;;;;18.85;5.90;;;;;;;;;;5108717;27;20052;-57
2022/05/31 13:35:26;;;;;;;8.48;5.45;;;;;;;;;;5119911;27;20071;-58
2022/05/31 13:37:58;;;;;;;3.38;2.83;;;;;;;;;;5111960;27;20032;-57
2022/05/31 13:40:25;;;;;;;44.00;7.13;;;;;;;;;;5112492;27;20280;-57
2022/05/31 13:42:53;;;;;;;7.82;4.20;;;;;;;;;;5105116;27;20558;-57
2022/05/31 13:45:20;;;;;;;3.20;2.40;;;;;;;;;;5111162;27;20054;-57
2022/05/31 13:47:47;;;;;;;4.75;3.60;;;;;;;;;;5103563;27;20050;-58
2022/05/31 13:50:16;;;;;;;3.78;2.95;;;;;;;;;;5115636;27;20131;-58
2022/05/31 13:52:42;;;;;;;20.98;4.18;;;;;;;;;;5108784;27;20496;-59
2022/05/31 13:55:13;;;;;;;5.68;2.75;;;;;;;;;;5099858;27;20047;-58
2022/05/31 13:57:48;;;;;;;13.65;4.68;;;;;;;;;;5118804;27;20075;-58
2022/05/31 14:00:13;;;;;;;4.25;3.42;;;;;;;;;;5116440;27;20048;-58
2022/05/31 14:03:00;;;;;;;10.48;5.10;;;;;;;;;;5113097;27;20582;-58
2022/05/31 14:05:29;;;;;;;8.32;2.50;;;;;;;;;;5117552;27;20047;-58
2022/05/31 14:07:55;;;;;;;10.05;4.88;;;;;;;;;;5119990;27;20052;-58
2022/05/31 14:10:23;;;;;;;9.18;4.75;;;;;;;;;;5117876;27;20047;-58
2022/05/31 14:12:49;;;;;;;25.75;5.93;;;;;;;;;;5117406;27;20051;-58
2022/05/31 14:15:24;;;;;;;5.07;2.95;;;;;;;;;;5117845;27;20053;-58
2022/05/31 14:17:49;;;;;;;5.85;4.03;;;;;;;;;;5119180;27;20049;-58
2022/05/31 14:20:20;;;;;;;5.63;4.35;;;;;;;;;;5121459;27;20543;-58
2022/05/31 14:22:46;;;;;;;5.93;3.33;;;;;;;;;;5109310;27;20043;-58
2022/05/31 14:25:14;;;;;;;6.45;4.78;;;;;;;;;;5117543;27;20074;-59
2022/05/31 14:27:40;;;;;;;10.30;3.88;;;;;;;;;;5118350;27;20114;-58
2022/05/31 14:30:08;;;;;;;5.25;4.53;;;;;;;;;;5117146;27;20572;-58
2022/05/31 14:32:34;;;;;;;8.88;5.68;;;;;;;;;;5114498;27;20070;-59
2022/05/31 14:35:00;;;;;;;8.25;3.20;;;;;;;;;;5107593;27;20249;-58
2022/05/31 14:37:35;;;;;;;4.63;3.63;;;;;;;;;;5115924;27;20689;-58
2022/05/31 14:40:03;;;;;;;2.22;1.92;;;;;;;;;;5118581;27;20071;-58
2022/05/31 14:42:35;;;;;;;18.23;6.43;;;;;;;;;;5112680;27;20066;-59
2022/05/31 14:45:02;;;;;;;12.73;4.22;;;;;;;;;;5110850;27;20165;-59
2022/05/31 14:47:28;;;;;;;5.43;2.90;;;;;;;;;;5115102;27;20058;-59
2022/05/31 14:50:06;;;;;;;8.60;4.82;;;;;;;;;;5106559;27;20044;-58
2022/05/31 14:52:32;;;;;;;6.03;4.30;;;;;;;;;;5114838;27;20130;-59
2022/05/31 14:55:15;;;;;;;5.50;3.80;;;;;;;;;;5115955;27;20146;-59
2022/05/31 15:00:26;;;;;;;6.78;4.60;;;;;;;;;;5112233;27;20057;-58
2022/05/31 15:02:52;;;;;;;6.97;4.75;;;;;;;;;;5110449;27;20043;-59
2022/05/31 15:05:24;;;;;;;7.25;2.95;;;;;;;;;;5116074;27;20976;-59
2022/05/31 15:07:57;;;;;;;4.57;3.72;;;;;;;;;;5116573;27;20540;-58
2022/05/31 15:10:36;;;;;;;5.47;3.42;;;;;;;;;;5113610;27;20043;-55
2022/05/31 15:21:12;;;;;;;5.03;3.55;;;;;;;;;;5119199;27;20145;-57
2022/05/31 15:23:37;;;;;;;4.13;3.28;;;;;;;;;;5117381;27;20126;-57
2022/05/31 15:26:05;;;;;;;6.97;3.72;;;;;;;;;;5116146;27;20044;-58
2022/05/31 15:28:31;;;;;;;5.32;3.25;;;;;;;;;;5117385;27;20099;-59